createdAt,value
2023-05-15T00:00:45.291Z,97.04
2023-05-15T00:01:46.010Z,96.98
2023-05-15T00:02:46.076Z,96.92
2023-05-15T00:03:44.791Z,96.88
2023-05-15T00:04:45.986Z,96.91
2023-05-15T00:05:45.929Z,96.93
2023-05-15T00:06:45.920Z,96.86
2023-05-15T00:07:45.908Z,96.82
2023-05-15T00:08:45.882Z,96.86
2023-05-15T00:09:45.870Z,96.92
2023-05-15T00:10:57.369Z,96.98
2023-05-15T00:11:46.844Z,97.00
2023-05-15T00:12:45.836Z,97.06
2023-05-15T00:13:45.824Z,97.11
2023-05-15T00:14:45.809Z,97.10
2023-05-15T00:15:45.803Z,97.08
2023-05-15T00:16:45.780Z,97.23
2023-05-15T00:17:45.812Z,97.25
2023-05-15T00:18:45.828Z,97.16
2023-05-15T00:19:45.725Z,97.01
2023-05-15T00:20:45.710Z,96.82
2023-05-15T00:21:45.716Z,96.57
2023-05-15T00:22:45.699Z,96.53
2023-05-15T00:23:45.677Z,96.50
2023-05-15T00:24:45.675Z,96.39
2023-05-15T00:25:45.646Z,96.19
2023-05-15T00:26:45.650Z,96.04
2023-05-15T00:27:44.165Z,95.94
2023-05-15T00:28:45.626Z,95.98
2023-05-15T00:29:45.582Z,96.02
2023-05-15T00:30:45.611Z,96.08
2023-05-15T00:31:45.633Z,96.14
2023-05-15T00:32:45.620Z,96.17
2023-05-15T00:33:45.538Z,96.27
2023-05-15T00:34:45.529Z,96.42
2023-05-15T00:35:44.299Z,96.48
2023-05-15T00:36:45.511Z,96.50
2023-05-15T00:37:45.492Z,96.35
2023-05-15T00:38:45.473Z,96.19
2023-05-15T00:39:45.460Z,96.20
2023-05-15T00:40:44.014Z,96.20
2023-05-15T00:41:45.448Z,96.26
2023-05-15T00:42:45.414Z,96.30
2023-05-15T00:43:43.953Z,96.35
2023-05-15T00:44:45.395Z,96.54
2023-05-15T00:45:45.382Z,96.64
2023-05-15T00:46:45.392Z,96.67
2023-05-15T00:47:45.371Z,96.76
2023-05-15T00:48:44.068Z,96.80
2023-05-15T00:49:43.976Z,96.84
2023-05-15T00:50:45.313Z,96.89
2023-05-15T00:51:45.314Z,96.93
2023-05-15T00:52:45.290Z,97.05
2023-05-15T00:53:44.013Z,97.26
2023-05-15T00:54:45.268Z,97.44
2023-05-15T00:55:45.277Z,97.53
2023-05-15T00:56:45.236Z,97.58
2023-05-15T00:57:45.224Z,97.65
2023-05-15T00:58:45.204Z,97.70
2023-05-15T00:59:45.202Z,97.83
2023-05-15T01:00:45.270Z,97.91
2023-05-15T01:01:45.179Z,98.07
2023-05-15T01:02:45.205Z,98.14
2023-05-15T01:03:45.144Z,98.17
2023-05-15T01:04:45.145Z,98.12
2023-05-15T01:05:45.129Z,98.09
2023-05-15T01:06:45.123Z,98.14
2023-05-15T01:07:43.884Z,98.19
2023-05-15T01:08:45.080Z,98.22
2023-05-15T01:09:45.098Z,98.21
2023-05-15T01:10:45.044Z,98.22
2023-05-15T01:11:45.027Z,98.20
2023-05-15T01:12:45.016Z,98.18
2023-05-15T01:13:45.043Z,98.20
2023-05-15T01:14:44.508Z,98.38
2023-05-15T01:15:44.954Z,98.63
2023-05-15T01:16:44.960Z,98.79
2023-05-15T01:17:44.999Z,98.95
2023-05-15T01:18:44.170Z,99.02
2023-05-15T01:19:45.070Z,99.11
2023-05-15T01:20:44.900Z,99.14
2023-05-15T01:21:44.896Z,99.19
2023-05-15T01:22:44.868Z,99.21
2023-05-15T01:23:44.870Z,99.21
2023-05-15T01:24:44.862Z,99.27
2023-05-15T01:25:44.827Z,99.31
2023-05-15T01:26:44.827Z,99.41
2023-05-15T01:27:44.827Z,99.48
2023-05-15T01:28:44.796Z,99.57
2023-05-15T01:29:44.788Z,99.57
2023-05-15T01:30:44.799Z,99.59
2023-05-15T01:31:44.767Z,99.63
2023-05-15T01:32:44.832Z,99.61
2023-05-15T01:33:44.754Z,99.61
2023-05-15T01:34:44.730Z,99.61
2023-05-15T01:35:44.690Z,99.62
2023-05-15T01:36:44.673Z,99.65
2023-05-15T01:37:44.668Z,99.74
2023-05-15T01:38:44.682Z,99.75
2023-05-15T01:39:44.644Z,99.79
2023-05-15T01:40:44.625Z,99.86
2023-05-15T01:41:44.609Z,99.89
2023-05-15T01:42:44.616Z,99.91
2023-05-15T01:43:44.579Z,100.00
2023-05-15T01:44:44.586Z,100.00
2023-05-15T01:45:44.558Z,100.00
2023-05-15T01:46:44.642Z,100.00
2023-05-15T01:47:44.597Z,100.00
2023-05-15T01:48:44.517Z,100.00
2023-05-15T01:49:44.504Z,100.00
2023-05-15T01:50:44.494Z,100.00
2023-05-15T01:51:44.505Z,100.00
2023-05-15T01:52:44.485Z,100.00
2023-05-15T01:53:44.293Z,100.00
2023-05-15T01:54:44.438Z,100.00
2023-05-15T01:55:44.429Z,100.00
2023-05-15T01:56:44.404Z,100.00
2023-05-15T01:57:44.401Z,100.00
2023-05-15T01:58:44.378Z,100.00
2023-05-15T01:59:44.384Z,100.00
2023-05-15T02:00:44.375Z,100.00
2023-05-15T02:01:44.419Z,100.00
2023-05-15T02:02:44.430Z,100.00
2023-05-15T02:03:43.489Z,100.00
2023-05-15T02:04:43.816Z,100.00
2023-05-15T02:05:44.297Z,100.00
2023-05-15T02:06:44.296Z,100.00
2023-05-15T02:07:44.256Z,100.00
2023-05-15T02:08:44.267Z,100.00
2023-05-15T02:09:44.247Z,100.00
2023-05-15T02:10:44.251Z,100.00
2023-05-15T02:11:44.206Z,100.00
2023-05-15T02:12:44.178Z,100.00
2023-05-15T02:13:44.174Z,100.00
2023-05-15T02:14:44.182Z,100.00
2023-05-15T02:15:44.149Z,100.00
2023-05-15T02:16:43.371Z,100.00
2023-05-15T02:17:44.151Z,100.00
2023-05-15T02:18:44.142Z,100.00
2023-05-15T02:19:44.115Z,100.00
2023-05-15T02:20:44.093Z,100.00
2023-05-15T02:21:44.097Z,100.00
2023-05-15T02:22:44.095Z,100.00
2023-05-15T02:23:44.077Z,100.00
2023-05-15T02:24:44.063Z,100.00
2023-05-15T02:25:44.065Z,100.00
2023-05-15T02:26:44.035Z,100.00
2023-05-15T02:27:44.026Z,100.00
2023-05-15T02:28:44.002Z,100.00
2023-05-15T02:29:44.005Z,100.00
2023-05-15T02:30:43.999Z,100.00
2023-05-15T02:31:42.539Z,100.00
2023-05-15T02:32:43.982Z,100.00
2023-05-15T02:33:43.942Z,100.00
2023-05-15T02:34:43.910Z,100.00
2023-05-15T02:35:43.894Z,100.00
2023-05-15T02:36:43.863Z,100.00
2023-05-15T02:37:43.932Z,100.00
2023-05-15T02:38:43.924Z,100.00
2023-05-15T02:39:43.827Z,100.00
2023-05-15T02:40:43.820Z,100.00
2023-05-15T02:41:43.805Z,100.00
2023-05-15T02:42:43.787Z,100.00
2023-05-15T02:43:43.786Z,100.00
2023-05-15T02:44:43.773Z,100.00
2023-05-15T02:45:43.762Z,100.00
2023-05-15T02:46:43.725Z,100.00
2023-05-15T02:47:43.753Z,100.00
2023-05-15T02:48:43.740Z,100.00
2023-05-15T02:49:43.712Z,100.00
2023-05-15T02:50:43.698Z,100.00
2023-05-15T02:51:43.712Z,100.00
2023-05-15T02:52:43.653Z,100.00
2023-05-15T02:53:43.653Z,100.00
2023-05-15T02:54:43.625Z,100.00
2023-05-15T02:55:43.610Z,100.00
2023-05-15T02:56:43.594Z,100.00
2023-05-15T02:57:43.581Z,100.00
2023-05-15T02:58:43.592Z,100.00
2023-05-15T02:59:43.569Z,100.00
2023-05-15T03:00:43.547Z,100.00
2023-05-15T03:01:43.582Z,100.00
2023-05-15T03:02:43.574Z,100.00
2023-05-15T03:03:43.498Z,100.00
2023-05-15T03:04:43.657Z,100.00
2023-05-15T03:05:43.486Z,100.00
2023-05-15T03:06:43.466Z,100.00
2023-05-15T03:07:43.469Z,100.00
2023-05-15T03:08:43.431Z,100.00
2023-05-15T03:09:43.439Z,100.00
2023-05-15T03:10:43.434Z,100.00
2023-05-15T03:11:43.394Z,100.00
2023-05-15T03:12:43.384Z,100.00
2023-05-15T03:13:43.405Z,100.00
2023-05-15T03:14:43.345Z,100.00
2023-05-15T03:15:43.349Z,100.00
2023-05-15T03:16:43.396Z,100.00
2023-05-15T03:17:43.465Z,100.00
2023-05-15T03:18:43.327Z,100.00
2023-05-15T03:19:43.294Z,100.00
2023-05-15T03:20:43.288Z,100.00
2023-05-15T03:21:43.264Z,100.00
2023-05-15T03:22:43.264Z,100.00
2023-05-15T03:23:43.240Z,100.00
2023-05-15T03:24:43.219Z,100.00
2023-05-15T03:25:43.205Z,100.00
2023-05-15T03:26:43.233Z,100.00
2023-05-15T03:27:43.167Z,100.00
2023-05-15T03:28:43.148Z,100.00
2023-05-15T03:29:43.169Z,100.00
2023-05-15T03:30:43.143Z,100.00
2023-05-15T03:31:42.707Z,100.00
2023-05-15T03:32:43.172Z,100.00
2023-05-15T03:33:43.102Z,100.00
2023-05-15T03:34:43.087Z,100.00
2023-05-15T03:35:43.093Z,100.00
2023-05-15T03:36:43.059Z,100.00
2023-05-15T03:37:42.121Z,100.00
2023-05-15T03:38:42.075Z,100.00
2023-05-15T03:39:43.030Z,100.00
2023-05-15T03:40:43.007Z,100.00
2023-05-15T03:41:42.987Z,100.00
2023-05-15T03:42:42.969Z,100.00
2023-05-15T03:43:42.966Z,100.00
2023-05-15T03:44:42.949Z,100.00
2023-05-15T03:45:42.931Z,100.00
2023-05-15T03:46:42.934Z,100.00
2023-05-15T03:47:43.025Z,100.00
2023-05-15T03:48:42.903Z,100.00
2023-05-15T03:49:42.896Z,100.00
2023-05-15T03:50:42.875Z,100.00
2023-05-15T03:51:42.844Z,100.00
2023-05-15T03:52:42.851Z,100.00
2023-05-15T03:53:42.818Z,100.00
2023-05-15T03:54:42.814Z,100.00
2023-05-15T03:55:42.832Z,100.00
2023-05-15T03:56:42.781Z,100.00
2023-05-15T03:57:42.762Z,100.00
2023-05-15T03:58:42.762Z,100.00
2023-05-15T03:59:42.746Z,100.00
2023-05-15T04:00:42.732Z,100.00
2023-05-15T04:01:59.468Z,100.00
2023-05-15T04:02:43.755Z,100.00
2023-05-15T04:03:42.721Z,100.00
2023-05-15T04:04:42.689Z,100.00
2023-05-15T04:05:42.706Z,100.00
2023-05-15T04:06:42.646Z,100.00
2023-05-15T04:07:42.621Z,100.00
2023-05-15T04:08:42.620Z,100.00
2023-05-15T04:09:42.617Z,100.00
2023-05-15T04:10:42.584Z,100.00
2023-05-15T04:11:42.599Z,100.00
2023-05-15T04:12:42.557Z,100.00
2023-05-15T04:13:42.567Z,100.00
2023-05-15T04:14:42.544Z,100.00
2023-05-15T04:15:42.519Z,100.00
2023-05-15T04:16:42.646Z,100.00
2023-05-15T04:17:42.533Z,100.00
2023-05-15T04:18:42.528Z,100.00
2023-05-15T04:19:43.127Z,100.00
2023-05-15T04:20:42.449Z,100.00
2023-05-15T04:21:42.453Z,100.00
2023-05-15T04:22:42.432Z,99.99
2023-05-15T04:23:42.435Z,99.93
2023-05-15T04:24:41.431Z,99.86
2023-05-15T04:25:41.424Z,99.79
2023-05-15T04:26:42.461Z,99.74
2023-05-15T04:27:42.374Z,99.73
2023-05-15T04:28:52.492Z,99.72
2023-05-15T04:29:43.337Z,99.62
2023-05-15T04:30:42.318Z,99.57
2023-05-15T04:31:42.332Z,99.53
2023-05-15T04:32:42.355Z,99.55
2023-05-15T04:33:42.283Z,99.53
2023-05-15T04:34:42.256Z,99.50
2023-05-15T04:35:42.279Z,99.47
2023-05-15T04:36:42.956Z,99.44
2023-05-15T04:37:42.232Z,99.42
2023-05-15T04:38:42.217Z,99.43
2023-05-15T04:39:42.184Z,99.36
2023-05-15T04:40:42.162Z,99.34
2023-05-15T04:41:42.174Z,99.42
2023-05-15T04:42:42.153Z,99.53
2023-05-15T04:43:42.138Z,99.66
2023-05-15T04:44:42.124Z,99.74
2023-05-15T04:45:42.138Z,99.82
2023-05-15T04:46:42.110Z,99.89
2023-05-15T04:47:42.169Z,99.84
2023-05-15T04:48:42.069Z,99.65
2023-05-15T04:49:41.563Z,99.52
2023-05-15T04:50:42.028Z,99.41
2023-05-15T04:51:42.045Z,99.32
2023-05-15T04:52:42.030Z,99.31
2023-05-15T04:53:41.998Z,99.21
2023-05-15T04:54:41.976Z,99.09
2023-05-15T04:55:41.971Z,98.96
2023-05-15T04:56:41.966Z,98.86
2023-05-15T04:57:41.959Z,98.69
2023-05-15T04:58:41.929Z,98.49
2023-05-15T04:59:41.954Z,98.33
2023-05-15T05:00:41.907Z,98.38
2023-05-15T05:01:42.008Z,98.32
2023-05-15T05:02:41.948Z,98.18
2023-05-15T05:03:41.897Z,98.01
2023-05-15T05:04:41.834Z,97.73
2023-05-15T05:05:41.853Z,97.54
2023-05-15T05:06:41.832Z,97.47
2023-05-15T05:07:41.838Z,97.43
2023-05-15T05:08:41.798Z,97.35
2023-05-15T05:09:41.781Z,97.24
2023-05-15T05:10:41.811Z,96.96
2023-05-15T05:11:41.769Z,96.88
2023-05-15T05:12:41.736Z,96.82
2023-05-15T05:13:41.733Z,96.78
2023-05-15T05:14:41.723Z,95.74
2023-05-15T05:15:41.766Z,94.62
2023-05-15T05:16:41.680Z,94.26
2023-05-15T05:17:41.742Z,92.77
2023-05-15T05:18:41.684Z,91.65
2023-05-15T05:19:41.675Z,89.57
2023-05-15T05:20:41.650Z,87.86
2023-05-15T05:21:41.655Z,86.82
2023-05-15T05:22:41.607Z,85.65
2023-05-15T05:23:41.603Z,84.56
2023-05-15T05:24:41.634Z,84.69
2023-05-15T05:25:41.554Z,84.88
2023-05-15T05:26:41.549Z,85.86
2023-05-15T05:27:41.528Z,86.71
2023-05-15T05:28:41.524Z,87.36
2023-05-15T05:29:41.505Z,87.45
2023-05-15T05:30:41.489Z,88.23
2023-05-15T05:31:41.570Z,88.89
2023-05-15T05:32:41.554Z,89.67
2023-05-15T05:33:41.461Z,90.37
2023-05-15T05:34:41.445Z,90.97
2023-05-15T05:35:41.427Z,91.65
2023-05-15T05:36:40.191Z,92.14
2023-05-15T05:37:41.672Z,92.60
2023-05-15T05:38:41.396Z,92.83
2023-05-15T05:39:41.399Z,92.93
2023-05-15T05:40:41.357Z,92.89
2023-05-15T05:41:41.348Z,92.96
2023-05-15T05:42:41.318Z,93.05
2023-05-15T05:43:41.325Z,93.14
2023-05-15T05:44:41.308Z,93.25
2023-05-15T05:45:41.280Z,93.33
2023-05-15T05:46:41.315Z,93.13
2023-05-15T05:47:41.302Z,93.11
2023-05-15T05:48:41.253Z,93.18
2023-05-15T05:49:41.227Z,92.97
2023-05-15T05:50:41.226Z,92.81
2023-05-15T05:51:41.215Z,92.75
2023-05-15T05:52:41.199Z,93.15
2023-05-15T05:53:41.182Z,93.42
2023-05-15T05:54:41.167Z,93.12
2023-05-15T05:55:41.146Z,93.17
2023-05-15T05:56:41.125Z,93.30
2023-05-15T05:57:41.126Z,92.34
2023-05-15T05:58:41.117Z,92.09
2023-05-15T05:59:41.089Z,92.68
2023-05-15T06:00:41.079Z,92.71
2023-05-15T06:01:41.103Z,92.84
2023-05-15T06:02:41.245Z,92.74
2023-05-15T06:03:41.085Z,92.38
2023-05-15T06:04:41.027Z,91.18
2023-05-15T06:05:41.018Z,91.15
2023-05-15T06:06:40.994Z,91.34
2023-05-15T06:07:41.005Z,91.21
2023-05-15T06:08:40.952Z,90.84
2023-05-15T06:09:40.963Z,89.30
2023-05-15T06:10:40.932Z,88.82
2023-05-15T06:11:40.943Z,88.57
2023-05-15T06:12:40.930Z,88.39
2023-05-15T06:13:40.919Z,88.19
2023-05-15T06:14:40.876Z,88.36
2023-05-15T06:15:40.870Z,88.77
2023-05-15T06:16:40.886Z,88.96
2023-05-15T06:17:40.886Z,88.05
2023-05-15T06:18:40.877Z,88.02
2023-05-15T06:19:40.821Z,88.27
2023-05-15T06:20:40.804Z,87.91
2023-05-15T06:21:40.794Z,87.23
2023-05-15T06:22:40.774Z,86.21
2023-05-15T06:23:40.751Z,84.69
2023-05-15T06:24:40.731Z,82.96
2023-05-15T06:25:40.913Z,80.76
2023-05-15T06:26:40.729Z,78.06
2023-05-15T06:27:40.798Z,74.55
2023-05-15T06:28:40.689Z,72.23
2023-05-15T06:29:40.675Z,70.88
2023-05-15T06:30:40.721Z,69.80
2023-05-15T06:31:40.680Z,68.47
2023-05-15T06:32:40.645Z,67.14
2023-05-15T06:33:40.615Z,66.52
2023-05-15T06:34:40.600Z,66.11
2023-05-15T06:35:40.610Z,63.98
2023-05-15T06:36:40.585Z,62.81
2023-05-15T06:37:40.575Z,62.60
2023-05-15T06:38:40.579Z,62.24
2023-05-15T06:39:40.549Z,60.93
2023-05-15T06:40:40.551Z,61.43
2023-05-15T06:41:40.534Z,60.16
2023-05-15T06:42:40.524Z,59.75
2023-05-15T06:43:40.498Z,59.83
2023-05-15T06:44:40.495Z,59.61
2023-05-15T06:45:40.475Z,59.18
2023-05-15T06:46:40.470Z,59.61
2023-05-15T06:47:40.526Z,59.07
2023-05-15T06:48:40.500Z,59.85
2023-05-15T06:49:40.428Z,58.87
2023-05-15T06:50:40.407Z,59.29
2023-05-15T06:51:40.378Z,59.57
2023-05-15T06:52:40.369Z,61.32
2023-05-15T06:53:40.346Z,61.69
2023-05-15T06:54:40.349Z,62.75
2023-05-15T06:55:40.344Z,63.39
2023-05-15T06:56:40.304Z,64.16
2023-05-15T06:57:40.296Z,63.43
2023-05-15T06:58:40.335Z,61.02
2023-05-15T06:59:40.300Z,58.39
2023-05-15T07:00:40.253Z,59.49
2023-05-15T07:01:40.316Z,57.21
2023-05-15T07:02:40.301Z,57.24
2023-05-15T07:03:40.238Z,56.04
2023-05-15T07:04:40.269Z,55.33
2023-05-15T07:05:40.195Z,55.10
2023-05-15T07:06:40.186Z,53.89
2023-05-15T07:07:40.182Z,53.15
2023-05-15T07:08:40.153Z,53.60
2023-05-15T07:09:40.147Z,53.08
2023-05-15T07:10:40.122Z,52.28
2023-05-15T07:11:40.120Z,53.19
2023-05-15T07:12:40.103Z,54.19
2023-05-15T07:13:40.094Z,56.67
2023-05-15T07:14:40.074Z,58.99
2023-05-15T07:15:40.155Z,59.36
2023-05-15T07:16:40.094Z,59.09
2023-05-15T07:17:40.087Z,59.55
2023-05-15T07:18:40.157Z,60.45
2023-05-15T07:19:40.019Z,59.23
2023-05-15T07:20:40.057Z,59.22
2023-05-15T07:21:39.970Z,58.95
2023-05-15T07:22:51.944Z,59.16
2023-05-15T07:23:40.954Z,57.88
2023-05-15T07:24:40.694Z,54.90
2023-05-15T07:25:40.019Z,53.38
2023-05-15T07:26:50.362Z,53.25
2023-05-15T07:27:40.894Z,54.19
2023-05-15T07:28:39.893Z,53.39
2023-05-15T07:29:39.888Z,51.61
2023-05-15T07:30:39.934Z,51.53
2023-05-15T07:31:39.892Z,52.47
2023-05-15T07:32:39.872Z,51.87
2023-05-15T07:33:39.836Z,51.04
2023-05-15T07:34:39.821Z,49.09
2023-05-15T07:35:39.793Z,48.95
2023-05-15T07:36:39.793Z,47.21
2023-05-15T07:37:39.765Z,46.36
2023-05-15T07:38:39.764Z,45.98
2023-05-15T07:39:39.884Z,47.91
2023-05-15T07:40:39.745Z,45.80
2023-05-15T07:41:39.749Z,47.91
2023-05-15T07:42:39.749Z,47.51
2023-05-15T07:43:39.714Z,46.48
2023-05-15T07:44:39.670Z,45.90
2023-05-15T07:45:39.751Z,46.03
2023-05-15T07:46:39.702Z,45.55
2023-05-15T07:47:39.644Z,46.09
2023-05-15T07:48:39.613Z,46.56
2023-05-15T07:49:39.606Z,46.58
2023-05-15T07:50:39.587Z,48.53
2023-05-15T07:51:39.576Z,48.82
2023-05-15T07:52:39.581Z,47.50
2023-05-15T07:53:39.566Z,47.88
2023-05-15T07:54:39.580Z,46.59
2023-05-15T07:55:39.532Z,45.50
2023-05-15T07:56:39.535Z,44.78
2023-05-15T07:57:39.540Z,44.34
2023-05-15T07:58:38.329Z,43.29
2023-05-15T07:59:39.468Z,44.16
2023-05-15T08:00:39.459Z,45.41
2023-05-15T08:01:39.464Z,44.29
2023-05-15T08:02:39.491Z,43.53
2023-05-15T08:03:39.655Z,43.61
2023-05-15T08:04:39.532Z,44.51
2023-05-15T08:05:39.394Z,43.85
2023-05-15T08:06:39.391Z,41.87
2023-05-15T08:07:39.399Z,42.09
2023-05-15T08:08:39.355Z,41.58
2023-05-15T08:09:39.358Z,42.91
2023-05-15T08:10:39.342Z,42.45
2023-05-15T08:11:39.335Z,41.85
2023-05-15T08:12:39.312Z,42.78
2023-05-15T08:13:39.292Z,41.08
2023-05-15T08:14:37.982Z,41.58
2023-05-15T08:15:39.311Z,40.07
2023-05-15T08:16:39.268Z,41.66
2023-05-15T08:17:39.266Z,43.26
2023-05-15T08:18:38.320Z,44.08
2023-05-15T08:19:39.247Z,41.65
2023-05-15T08:20:39.228Z,42.59
2023-05-15T08:21:39.197Z,43.49
2023-05-15T08:22:39.190Z,43.59
2023-05-15T08:23:39.166Z,45.80
2023-05-15T08:24:39.168Z,44.10
2023-05-15T08:25:39.160Z,42.36
2023-05-15T08:26:39.135Z,42.44
2023-05-15T08:27:39.123Z,42.33
2023-05-15T08:28:39.124Z,42.85
2023-05-15T08:29:39.486Z,40.45
2023-05-15T08:30:39.073Z,40.49
2023-05-15T08:31:39.118Z,39.17
2023-05-15T08:32:39.131Z,39.86
2023-05-15T08:33:39.044Z,39.07
2023-05-15T08:34:39.139Z,39.20
2023-05-15T08:35:39.051Z,40.24
2023-05-15T08:36:39.679Z,40.21
2023-05-15T08:37:38.996Z,40.35
2023-05-15T08:38:38.967Z,40.77
2023-05-15T08:39:38.984Z,41.61
2023-05-15T08:40:40.142Z,41.93
2023-05-15T08:41:40.851Z,41.06
2023-05-15T08:42:38.936Z,41.47
2023-05-15T08:43:38.931Z,41.68
2023-05-15T08:44:38.935Z,42.22
2023-05-15T08:45:38.885Z,43.25
2023-05-15T08:46:38.907Z,41.99
2023-05-15T08:47:38.923Z,42.47
2023-05-15T08:48:39.018Z,44.43
2023-05-15T08:49:38.843Z,43.52
2023-05-15T08:50:38.835Z,40.18
2023-05-15T08:51:38.816Z,39.59
2023-05-15T08:52:38.808Z,39.70
2023-05-15T08:53:38.817Z,40.41
2023-05-15T08:54:38.788Z,39.01
2023-05-15T08:55:38.773Z,39.78
2023-05-15T08:56:38.758Z,41.91
2023-05-15T08:57:38.739Z,41.00
2023-05-15T08:58:38.744Z,39.88
2023-05-15T08:59:38.748Z,40.40
2023-05-15T09:00:38.702Z,45.49
2023-05-15T09:01:38.785Z,46.21
2023-05-15T09:02:38.766Z,45.31
2023-05-15T09:03:38.856Z,45.27
2023-05-15T09:04:38.656Z,44.04
2023-05-15T09:05:40.083Z,44.17
2023-05-15T09:06:38.646Z,43.92
2023-05-15T09:07:38.635Z,43.99
2023-05-15T09:08:37.678Z,43.09
2023-05-15T09:09:38.605Z,43.90
2023-05-15T09:10:38.570Z,42.74
2023-05-15T09:11:38.557Z,42.63
2023-05-15T09:12:38.556Z,44.08
2023-05-15T09:13:38.526Z,45.25
2023-05-15T09:14:38.534Z,47.22
2023-05-15T09:15:38.504Z,48.18
2023-05-15T09:16:38.591Z,50.22
2023-05-15T09:17:38.498Z,52.41
2023-05-15T09:18:38.513Z,53.85
2023-05-15T09:19:38.461Z,55.12
2023-05-15T09:20:38.486Z,56.18
2023-05-15T09:21:38.446Z,55.62
2023-05-15T09:22:38.435Z,55.75
2023-05-15T09:23:38.406Z,55.85
2023-05-15T09:24:38.394Z,55.31
2023-05-15T09:25:38.421Z,55.19
2023-05-15T09:26:38.382Z,55.73
2023-05-15T09:27:38.349Z,58.09
2023-05-15T09:28:38.333Z,57.79
2023-05-15T09:29:38.327Z,57.98
2023-05-15T09:30:38.312Z,56.13
2023-05-15T09:31:38.395Z,56.95
2023-05-15T09:32:38.314Z,57.68
2023-05-15T09:33:38.283Z,58.11
2023-05-15T09:34:38.256Z,61.33
2023-05-15T09:35:38.253Z,62.33
2023-05-15T09:36:38.248Z,61.79
2023-05-15T09:37:38.213Z,61.81
2023-05-15T09:38:38.232Z,61.73
2023-05-15T09:39:38.197Z,61.36
2023-05-15T09:40:38.238Z,61.84
2023-05-15T09:41:38.172Z,62.04
2023-05-15T09:42:38.161Z,62.04
2023-05-15T09:43:38.133Z,60.90
2023-05-15T09:44:38.129Z,62.37
2023-05-15T09:45:38.127Z,61.97
2023-05-15T09:46:38.149Z,62.09
2023-05-15T09:47:38.234Z,60.96
2023-05-15T09:48:38.175Z,61.28
2023-05-15T09:49:38.061Z,61.03
2023-05-15T09:50:38.058Z,60.53
2023-05-15T09:51:38.040Z,60.05
2023-05-15T09:52:38.012Z,56.91
2023-05-15T09:53:38.003Z,57.09
2023-05-15T09:54:37.983Z,57.08
2023-05-15T09:55:37.978Z,56.89
2023-05-15T09:56:37.966Z,57.27
2023-05-15T09:57:37.993Z,56.81
2023-05-15T09:58:37.929Z,55.92
2023-05-15T09:59:37.913Z,52.26
2023-05-15T10:00:48.174Z,50.91
2023-05-15T10:01:38.922Z,51.56
2023-05-15T10:02:37.921Z,51.52
2023-05-15T10:03:37.859Z,54.22
2023-05-15T10:04:37.868Z,54.81
2023-05-15T10:05:43.541Z,57.79
2023-05-15T10:06:40.647Z,61.65
2023-05-15T10:07:37.828Z,70.08
2023-05-15T10:08:37.804Z,72.21
2023-05-15T10:09:37.789Z,79.71
2023-05-15T10:10:37.780Z,82.90
2023-05-15T10:11:37.768Z,85.35
2023-05-15T10:12:37.967Z,88.40
2023-05-15T10:13:37.741Z,90.90
2023-05-15T10:14:37.745Z,92.22
2023-05-15T10:15:37.720Z,92.49
2023-05-15T10:16:37.767Z,93.71
2023-05-15T10:17:36.526Z,94.90
2023-05-15T10:18:37.721Z,95.91
2023-05-15T10:19:47.033Z,97.06
2023-05-15T10:20:38.627Z,97.42
2023-05-15T10:21:37.607Z,96.73
2023-05-15T10:22:37.603Z,97.17
2023-05-15T10:23:37.655Z,97.92
2023-05-15T10:24:37.588Z,98.55
2023-05-15T10:25:37.555Z,99.03
2023-05-15T10:26:37.548Z,99.43
2023-05-15T10:27:37.549Z,99.73
2023-05-15T10:28:37.550Z,99.98
2023-05-15T10:29:37.513Z,100.00
2023-05-15T10:30:37.505Z,100.00
2023-05-15T10:31:37.497Z,100.00
2023-05-15T10:32:37.566Z,100.00
2023-05-15T10:33:37.468Z,100.00
2023-05-15T10:34:36.597Z,100.00
2023-05-15T10:35:37.430Z,100.00
2023-05-15T10:36:37.970Z,100.00
2023-05-15T10:37:37.419Z,100.00
2023-05-15T10:38:36.196Z,100.00
2023-05-15T10:39:36.399Z,100.00
2023-05-15T10:40:37.400Z,100.00
2023-05-15T10:41:37.363Z,100.00
2023-05-15T10:42:37.367Z,100.00
2023-05-15T10:43:37.332Z,100.00
2023-05-15T10:44:35.915Z,99.66
2023-05-15T10:45:37.325Z,99.41
2023-05-15T10:46:37.343Z,99.66
2023-05-15T10:47:37.323Z,100.00
2023-05-15T10:48:37.267Z,100.00
2023-05-15T10:49:37.269Z,100.00
2023-05-15T10:50:36.718Z,100.00
2023-05-15T10:51:37.224Z,100.00
2023-05-15T10:52:37.239Z,100.00
2023-05-15T10:53:37.196Z,99.81
2023-05-15T10:54:37.165Z,98.53
2023-05-15T10:55:37.158Z,97.51
2023-05-15T10:56:37.184Z,97.39
2023-05-15T10:57:37.137Z,97.65
2023-05-15T10:58:37.116Z,98.10
2023-05-15T10:59:37.105Z,98.62
2023-05-15T11:00:37.082Z,99.08
2023-05-15T11:01:37.173Z,99.26
2023-05-15T11:02:37.093Z,99.58
2023-05-15T11:03:47.905Z,99.84
2023-05-15T11:04:38.086Z,99.81
2023-05-15T11:05:37.014Z,99.61
2023-05-15T11:06:37.021Z,99.23
2023-05-15T11:07:37.002Z,99.11
2023-05-15T11:08:36.993Z,99.06
2023-05-15T11:09:36.963Z,98.21
2023-05-15T11:10:36.972Z,97.11
2023-05-15T11:11:36.966Z,97.28
2023-05-15T11:12:36.928Z,97.67
2023-05-15T11:13:36.919Z,98.26
2023-05-15T11:14:36.896Z,98.89
2023-05-15T11:15:36.906Z,99.27
2023-05-15T11:16:36.916Z,99.16
2023-05-15T11:17:36.914Z,99.13
2023-05-15T11:18:36.874Z,99.34
2023-05-15T11:19:36.836Z,99.59
2023-05-15T11:20:37.281Z,99.52
2023-05-15T11:21:36.788Z,98.50
2023-05-15T11:22:36.778Z,96.98
2023-05-15T11:23:36.780Z,96.96
2023-05-15T11:24:36.771Z,97.55
2023-05-15T11:25:36.760Z,97.72
2023-05-15T11:26:35.794Z,96.19
2023-05-15T11:27:36.717Z,95.35
2023-05-15T11:28:36.236Z,95.22
2023-05-15T11:29:36.689Z,95.28
2023-05-15T11:30:36.688Z,94.97
2023-05-15T11:31:36.703Z,94.51
2023-05-15T11:32:36.688Z,94.64
2023-05-15T11:33:36.638Z,93.26
2023-05-15T11:34:36.641Z,93.80
2023-05-15T11:35:35.732Z,94.00
2023-05-15T11:36:37.708Z,94.90
2023-05-15T11:37:36.570Z,93.79
2023-05-15T11:38:36.562Z,93.45
2023-05-15T11:39:36.562Z,93.85
2023-05-15T11:40:36.530Z,93.58
2023-05-15T11:41:36.524Z,92.05
2023-05-15T11:42:36.521Z,92.02
2023-05-15T11:43:36.547Z,89.83
2023-05-15T11:44:36.501Z,89.20
2023-05-15T11:45:36.480Z,91.12
2023-05-15T11:46:36.534Z,92.14
2023-05-15T11:47:36.469Z,93.15
2023-05-15T11:48:36.441Z,94.13
2023-05-15T11:49:36.414Z,93.42
2023-05-15T11:50:36.410Z,93.22
2023-05-15T11:51:36.389Z,90.55
2023-05-15T11:52:36.365Z,92.20
2023-05-15T11:53:36.366Z,92.95
2023-05-15T11:54:36.350Z,92.04
2023-05-15T11:55:36.342Z,92.33
2023-05-15T11:56:34.997Z,91.15
2023-05-15T11:57:36.327Z,91.86
2023-05-15T11:58:36.314Z,92.91
2023-05-15T11:59:36.270Z,92.78
2023-05-15T12:00:36.260Z,91.59
2023-05-15T12:01:36.246Z,90.05
2023-05-15T12:02:36.315Z,90.95
2023-05-15T12:03:36.557Z,91.62
2023-05-15T12:04:36.234Z,91.31
2023-05-15T12:05:36.428Z,90.72
2023-05-15T12:06:36.191Z,89.72
2023-05-15T12:07:36.177Z,88.22
2023-05-15T12:08:36.156Z,88.66
2023-05-15T12:09:36.140Z,85.25
2023-05-15T12:10:36.127Z,86.49
2023-05-15T12:11:36.122Z,85.46
2023-05-15T12:12:36.109Z,88.82
2023-05-15T12:13:36.097Z,84.67
2023-05-15T12:14:36.076Z,85.07
2023-05-15T12:15:36.066Z,84.76
2023-05-15T12:16:36.065Z,82.96
2023-05-15T12:17:36.150Z,87.08
2023-05-15T12:18:36.028Z,83.29
2023-05-15T12:19:36.004Z,84.58
2023-05-15T12:20:36.002Z,83.89
2023-05-15T12:21:37.766Z,83.85
2023-05-15T12:22:35.971Z,84.35
2023-05-15T12:23:35.947Z,84.34
2023-05-15T12:24:35.931Z,81.20
2023-05-15T12:25:35.933Z,81.92
2023-05-15T12:26:36.108Z,84.07
2023-05-15T12:27:35.901Z,84.77
2023-05-15T12:28:35.869Z,82.29
2023-05-15T12:29:35.853Z,81.05
2023-05-15T12:30:35.884Z,83.29
2023-05-15T12:31:36.019Z,82.29
2023-05-15T12:32:35.833Z,82.48
2023-05-15T12:33:35.829Z,80.57
2023-05-15T12:34:35.812Z,80.60
2023-05-15T12:35:35.805Z,81.82
2023-05-15T12:36:35.798Z,81.30
2023-05-15T12:37:35.751Z,80.83
2023-05-15T12:38:35.336Z,81.48
2023-05-15T12:39:35.727Z,80.05
2023-05-15T12:40:35.728Z,79.08
2023-05-15T12:41:35.714Z,79.08
2023-05-15T12:42:35.696Z,80.02
2023-05-15T12:43:35.682Z,77.63
2023-05-15T12:44:35.664Z,73.96
2023-05-15T12:45:35.667Z,76.54
2023-05-15T12:46:35.722Z,78.69